• Join FlightAware (Why Join?)
  • Login
  • US Flag 
02:52PM EDT


 

Airport Tracker/Info


-or-


 

Live Flight TrackerFlight Track Log ✈ BXR1966 ✈ 01-Aug-2013 ✈ KMHR - KACV

Flight Track Log - Related Links

Times and Time Zones

All times are in EDT time to prevent confusion due to time zone crossing. See the BXR1966 flight status page for this flight to view local times or setup timezone preferences in your user account.

Time Position Orientation Groundspeed Altitude Reporting Facility
EDT Latitude Longitude Course Direction KTS MPH feet Rate Location/Type
09:06AM 38.5667 -121.2833 339° North 106 122 400  Level Northern Cal TRACON
09:07AM 38.6000 -121.3000 339° North 111 128 1,000 540 Climbing Northern Cal TRACON
09:08AM 38.6167 -121.3167 322° Northwest 125 144 1,500 480 Climbing Northern Cal TRACON
09:09AM 38.6500 -121.3500 322° Northwest 131 151 2,000 540 Climbing Northern Cal TRACON
09:10AM 38.6667 -121.3833 303° West 149 171 2,600 540 Climbing Northern Cal TRACON
09:11AM 38.7000 -121.4000 339° North 131 151 3,100 480 Climbing Northern Cal TRACON
09:12AM 38.7333 -121.4167 339° North 139 160 3,500 540 Climbing Northern Cal TRACON
09:13AM 38.7500 -121.4500 303° West 126 145 4,100 540 Climbing Northern Cal TRACON
09:14AM 38.7833 -121.4833 322° Northwest 131 151 4,600 420 Climbing Northern Cal TRACON
09:15AM 38.8000 -121.5167 303° West 131 151 5,000 420 Climbing Northern Cal TRACON
09:16AM 38.8333 -121.5500 322° Northwest 135 155 5,500 480 Climbing Northern Cal TRACON
09:17AM 38.8667 -121.5833 322° Northwest 136 157 6,000 480 Climbing Northern Cal TRACON
09:18AM 38.9000 -121.6167 322° Northwest 141 162 6,600 420 Climbing Northern Cal TRACON
09:19AM 38.9178 -121.6361 320° Northwest 139 160 6,900 420 Climbing Oakland Center
09:20AM 38.9467 -121.6686 319° Northwest 139 160 7,400 480 Climbing Oakland Center
09:21AM 38.9733 -121.7028 315° West 137 158 7,900 480 Climbing Oakland Center
09:22AM 39.0033 -121.7353 320° Northwest 140 161 8,400 420 Climbing Oakland Center
09:23AM 39.0350 -121.7658 323° Northwest 141 162 8,800 360 Climbing Oakland Center
09:24AM 39.0650 -121.7992 319° Northwest 142 163 9,200 480 Climbing Oakland Center
09:25AM 39.0922 -121.8331 316° Northwest 138 159 9,800 540 Climbing Oakland Center
09:26AM 39.1203 -121.8683 316° Northwest 140 161 10,300 240 Climbing Oakland Center
09:27AM 39.1472 -121.9103 310° West 149 171 10,400  Climbing Oakland Center
09:28AM 39.1764 -121.9539 311° West 163 188 10,300 -60 Descending Oakland Center
09:29AM 39.2108 -121.9967 316° Northwest 170 196 10,300  Level Oakland Center
09:30AM 39.2433 -122.0397 314° West 168 193 10,400  Climbing Oakland Center
09:31AM 39.2742 -122.0858 311° West 167 192 10,400  Level Oakland Center
09:32AM 39.3064 -122.1292 314° West 169 194 10,400  Level Oakland Center
09:33AM 39.3394 -122.1733 314° West 169 194 10,400  Level Oakland Center
09:34AM 39.3711 -122.2167 313° West 169 194 10,400  Level Oakland Center
09:35AM 39.4047 -122.2600 315° West 169 194 10,400  Level Oakland Center
09:36AM 39.4433 -122.3106 315° West 166 191 10,400  Level Oakland Center
09:37AM 39.4753 -122.3539 314° West 166 191 10,400  Level Oakland Center
09:38AM 39.5067 -122.3942 315° West 167 192 10,400  Level Oakland Center
09:39AM 39.5397 -122.4375 315° West 169 194 10,400  Level Oakland Center
09:40AM 39.5736 -122.4789 317° Northwest 168 193 10,400  Level Oakland Center
09:41AM 39.6061 -122.5236 313° West 170 196 10,400  Level Oakland Center
09:42AM 39.6325 -122.5717 305° West 167 192 10,500  Climbing Oakland Center
09:43AM 39.6664 -122.6158 315° West 172 198 10,500  Level Oakland Center
09:44AM 39.6978 -122.6606 312° West 169 194 10,500  Level Oakland Center
09:45AM 39.7303 -122.7044 314° West 169 194 10,500 -60 Level Oakland Center
09:46AM 39.7647 -122.7481 316° Northwest 171 197 10,400  Descending Oakland Center
09:47AM 39.7947 -122.7933 311° West 166 191 10,500  Climbing Oakland Center
09:48AM 39.8256 -122.8386 312° West 167 192 10,500  Level Oakland Center
09:49AM 39.8603 -122.8944 309° West 165 190 10,500  Level Oakland Center
09:50AM 39.8908 -122.9406 311° West 167 192 10,500  Level Oakland Center
09:51AM 39.9228 -122.9850 313° West 167 192 10,500  Level Oakland Center
09:52AM 39.9506 -123.0314 308° West 164 189 10,500  Level Oakland Center
09:53AM 39.9817 -123.0775 311° West 168 193 10,500  Level Oakland Center
09:54AM 40.0131 -123.1236 312° West 172 198 10,500  Level Oakland Center
09:55AM 40.0417 -123.1697 309° West 167 192 10,500  Level Oakland Center
09:56AM 40.0706 -123.2164 309° West 166 191 10,500 60 Level Oakland Center
09:57AM 40.1011 -123.2650 309° West 166 191 10,700 60 Climbing Oakland Center
09:58AM 40.1311 -123.3114 310° West 168 193 10,700  Level Oakland Center
09:59AM 40.1600 -123.3569 310° West 166 191 10,700 -60 Level Oakland Center
10:00AM 40.1883 -123.4019 310° West 164 189 10,600 -60 Descending Oakland Center
10:01AM 40.2156 -123.4450 310° West 160 184 10,600 -60 Level Oakland Center
10:02AM 40.2442 -123.4886 311° West 157 181 10,500 -60 Descending Oakland Center
10:03AM 40.2722 -123.5311 311° West 157 181 10,500 -540 Level Oakland Center
10:04AM 40.3008 -123.5781 309° West 159 183 9,500 -840 Descending Oakland Center
10:05AM 40.3328 -123.6331 307° West 173 199 8,800 -1,080 Descending Oakland Center
10:06AM 40.3756 -123.6958 312° West 185 213 7,400 -1,380 Descending Oakland Center
10:07AM 40.4100 -123.7522 309° West 192 221 6,100 -1,080 Descending Oakland Center
10:08AM 40.4431 -123.8089 307° West 195 224 5,300 -600 Descending Oakland Center
10:10AM 40.4711 -123.8614 305° West 188 216 4,900 -180 Descending Seattle Center
10:11AM 40.4972 -123.9086 306° West 175 201 5,000  Climbing Seattle Center
10:12AM 40.5236 -123.9522 309° West 163 188 5,000  Level Seattle Center
10:13AM 40.5494 -123.9997 306° West 161 185 5,000  Level Seattle Center
10:14AM 40.5733 -124.0486 303° West 160 184 5,000  Level Seattle Center
10:15AM 40.5961 -124.0967 302° West 159 183 5,000  Level Seattle Center
10:16AM 40.6253 -124.1550 303° West 159 183 5,000 -60 Level Seattle Center
10:17AM 40.6486 -124.2047 302° West 160 184 4,900 -180 Descending Seattle Center
10:18AM 40.6803 -124.2406 319° Northwest 161 185 4,700 -360 Descending Seattle Center
10:19AM 40.7208 -124.2403 360° North 152 175 4,200 -540 Descending Seattle Center
10:20AM 40.7603 -124.2428 357° North 146 168 3,700 -540 Descending Seattle Center